sensor_id;sensor_type;location;lat;lon;timestamp;P1;durP1;ratioP1;P2;durP2;ratioP2
47844;SDS011;33605;48.822;8.796;2022-12-11T10:58:51;23.90;;;12.80;;
47844;SDS011;33605;48.822;8.796;2022-12-11T11:01:18;19.50;;;12.37;;
47844;SDS011;33605;48.822;8.796;2022-12-11T11:03:54;21.20;;;12.10;;
47844;SDS011;33605;48.822;8.796;2022-12-11T11:06:28;19.40;;;12.63;;
47844;SDS011;33605;48.822;8.796;2022-12-11T11:08:55;20.03;;;12.53;;
47844;SDS011;33605;48.822;8.796;2022-12-11T11:11:24;18.80;;;12.90;;
47844;SDS011;33605;48.822;8.796;2022-12-11T11:14:03;19.10;;;11.90;;
47844;SDS011;33605;48.822;8.796;2022-12-11T11:16:37;17.30;;;11.23;;
47844;SDS011;33605;48.822;8.796;2022-12-11T11:19:05;21.60;;;12.90;;
47844;SDS011;33605;48.822;8.796;2022-12-11T11:21:32;17.93;;;12.03;;
47844;SDS011;33605;48.822;8.796;2022-12-11T11:23:58;17.17;;;11.67;;
47844;SDS011;33605;48.822;8.796;2022-12-11T11:26:24;17.53;;;10.50;;
47844;SDS011;33605;48.822;8.796;2022-12-11T11:28:53;17.63;;;11.90;;
47844;SDS011;33605;48.822;8.796;2022-12-11T11:31:21;19.27;;;11.93;;
47844;SDS011;33605;48.822;8.796;2022-12-11T11:33:59;22.03;;;12.37;;
47844;SDS011;33605;48.822;8.796;2022-12-11T11:36:30;15.00;;;9.83;;
47844;SDS011;33605;48.822;8.796;2022-12-11T11:39:40;16.57;;;11.33;;
47844;SDS011;33605;48.822;8.796;2022-12-11T11:41:57;19.13;;;11.97;;
47844;SDS011;33605;48.822;8.796;2022-12-11T11:44:32;14.80;;;10.70;;
47844;SDS011;33605;48.822;8.796;2022-12-11T11:47:12;16.30;;;11.30;;
47844;SDS011;33605;48.822;8.796;2022-12-11T11:49:54;17.30;;;10.73;;
47844;SDS011;33605;48.822;8.796;2022-12-11T11:55:01;20.27;;;11.73;;
47844;SDS011;33605;48.822;8.796;2022-12-11T12:00:25;16.97;;;11.77;;
47844;SDS011;33605;48.822;8.796;2022-12-11T12:02:55;14.13;;;11.37;;
47844;SDS011;33605;48.822;8.796;2022-12-11T12:05:34;23.03;;;12.73;;
47844;SDS011;33605;48.822;8.796;2022-12-11T12:21:51;16.53;;;11.43;;
47844;SDS011;33605;48.822;8.796;2022-12-11T12:24:28;18.60;;;12.60;;
47844;SDS011;33605;48.822;8.796;2022-12-11T12:27:21;17.00;;;10.93;;
47844;SDS011;33605;48.822;8.796;2022-12-11T12:30:03;19.67;;;12.67;;
47844;SDS011;33605;48.822;8.796;2022-12-11T12:35:35;17.60;;;10.43;;
47844;SDS011;33605;48.822;8.796;2022-12-11T12:38:14;18.70;;;10.53;;
47844;SDS011;33605;48.822;8.796;2022-12-11T12:49:37;22.40;;;14.50;;
47844;SDS011;33605;48.822;8.796;2022-12-11T12:52:06;22.00;;;13.97;;
47844;SDS011;33605;48.822;8.796;2022-12-11T12:54:51;55.50;;;24.10;;
47844;SDS011;33605;48.822;8.796;2022-12-11T12:57:38;38.67;;;18.50;;
47844;SDS011;33605;48.822;8.796;2022-12-11T13:00:11;38.43;;;17.00;;
47844;SDS011;33605;48.822;8.796;2022-12-11T13:02:37;85.03;;;30.87;;
47844;SDS011;33605;48.822;8.796;2022-12-11T13:05:25;36.27;;;20.17;;
47844;SDS011;33605;48.822;8.796;2022-12-11T13:07:58;302.97;;;86.77;;
47844;SDS011;33605;48.822;8.796;2022-12-11T13:10:27;160.03;;;55.93;;
47844;SDS011;33605;48.822;8.796;2022-12-11T13:12:56;76.30;;;30.97;;
47844;SDS011;33605;48.822;8.796;2022-12-11T13:18:28;47.90;;;20.53;;
47844;SDS011;33605;48.822;8.796;2022-12-11T13:20:58;22.87;;;11.60;;
47844;SDS011;33605;48.822;8.796;2022-12-11T13:23:28;16.00;;;10.83;;
47844;SDS011;33605;48.822;8.796;2022-12-11T13:26:00;17.20;;;11.37;;
47844;SDS011;33605;48.822;8.796;2022-12-11T13:33:41;18.60;;;10.90;;
47844;SDS011;33605;48.822;8.796;2022-12-11T13:38:35;35.83;;;21.37;;
47844;SDS011;33605;48.822;8.796;2022-12-11T13:41:03;26.27;;;16.53;;
47844;SDS011;33605;48.822;8.796;2022-12-11T13:43:34;29.30;;;16.83;;
47844;SDS011;33605;48.822;8.796;2022-12-11T13:46:05;31.70;;;17.10;;
47844;SDS011;33605;48.822;8.796;2022-12-11T13:48:34;29.40;;;17.60;;
47844;SDS011;33605;48.822;8.796;2022-12-11T13:51:01;30.20;;;16.27;;
47844;SDS011;33605;48.822;8.796;2022-12-11T13:53:27;27.13;;;15.93;;
47844;SDS011;33605;48.822;8.796;2022-12-11T13:55:54;25.30;;;16.47;;
47844;SDS011;33605;48.822;8.796;2022-12-11T13:58:21;29.97;;;18.80;;
47844;SDS011;33605;48.822;8.796;2022-12-11T14:01:06;29.30;;;19.10;;
47844;SDS011;33605;48.822;8.796;2022-12-11T14:03:35;27.67;;;16.73;;
47844;SDS011;33605;48.822;8.796;2022-12-11T14:06:01;29.83;;;18.13;;
47844;SDS011;33605;48.822;8.796;2022-12-11T14:08:30;33.80;;;19.43;;
47844;SDS011;33605;48.822;8.796;2022-12-11T14:10:57;31.37;;;19.23;;
47844;SDS011;33605;48.822;8.796;2022-12-11T14:13:24;31.67;;;19.23;;
47844;SDS011;33605;48.822;8.796;2022-12-11T14:15:51;32.00;;;19.30;;
47844;SDS011;33605;48.822;8.796;2022-12-11T14:18:22;35.10;;;20.87;;
47844;SDS011;33605;48.822;8.796;2022-12-11T14:20:58;67.57;;;37.60;;
47844;SDS011;33605;48.822;8.796;2022-12-11T14:23:28;40.23;;;23.90;;
47844;SDS011;33605;48.822;8.796;2022-12-11T14:25:56;50.33;;;29.40;;
47844;SDS011;33605;48.822;8.796;2022-12-11T14:28:23;36.10;;;21.00;;
47844;SDS011;33605;48.822;8.796;2022-12-11T14:30:52;32.13;;;19.07;;
47844;SDS011;33605;48.822;8.796;2022-12-11T14:33:24;40.17;;;23.43;;
47844;SDS011;33605;48.822;8.796;2022-12-11T14:35:53;35.83;;;20.37;;
47844;SDS011;33605;48.822;8.796;2022-12-11T14:38:22;46.00;;;27.60;;
47844;SDS011;33605;48.822;8.796;2022-12-11T14:41:18;41.67;;;26.80;;
47844;SDS011;33605;48.822;8.796;2022-12-11T14:43:50;39.10;;;22.50;;
47844;SDS011;33605;48.822;8.796;2022-12-11T14:46:21;32.67;;;19.87;;
47844;SDS011;33605;48.822;8.796;2022-12-11T14:48:57;37.20;;;24.53;;
47844;SDS011;33605;48.822;8.796;2022-12-11T14:51:32;36.50;;;22.57;;
47844;SDS011;33605;48.822;8.796;2022-12-11T14:54:02;41.90;;;23.00;;
47844;SDS011;33605;48.822;8.796;2022-12-11T14:56:30;36.80;;;21.30;;
47844;SDS011;33605;48.822;8.796;2022-12-11T14:58:57;35.83;;;20.80;;
47844;SDS011;33605;48.822;8.796;2022-12-11T15:01:30;34.33;;;22.30;;
47844;SDS011;33605;48.822;8.796;2022-12-11T15:04:18;45.27;;;29.30;;
47844;SDS011;33605;48.822;8.796;2022-12-11T15:06:49;54.77;;;31.57;;
47844;SDS011;33605;48.822;8.796;2022-12-11T15:11:54;37.00;;;22.00;;
47844;SDS011;33605;48.822;8.796;2022-12-11T15:14:21;36.00;;;20.50;;
47844;SDS011;33605;48.822;8.796;2022-12-11T15:16:49;36.27;;;21.33;;
47844;SDS011;33605;48.822;8.796;2022-12-11T15:19:18;32.50;;;19.70;;
47844;SDS011;33605;48.822;8.796;2022-12-11T15:21:47;33.70;;;19.77;;
47844;SDS011;33605;48.822;8.796;2022-12-11T15:27:19;38.27;;;22.23;;
47844;SDS011;33605;48.822;8.796;2022-12-11T15:29:48;36.70;;;22.90;;
47844;SDS011;33605;48.822;8.796;2022-12-11T15:32:17;42.77;;;24.50;;
47844;SDS011;33605;48.822;8.796;2022-12-11T15:37:26;37.43;;;22.47;;
47844;SDS011;33605;48.822;8.796;2022-12-11T15:39:55;42.50;;;24.13;;
47844;SDS011;33605;48.822;8.796;2022-12-11T15:42:25;44.97;;;26.20;;
47844;SDS011;33605;48.822;8.796;2022-12-11T15:44:51;39.87;;;22.57;;
47844;SDS011;33605;48.822;8.796;2022-12-11T15:47:19;44.90;;;23.87;;
47844;SDS011;33605;48.822;8.796;2022-12-11T15:49:47;38.03;;;23.13;;
47844;SDS011;33605;48.822;8.796;2022-12-11T15:52:12;36.17;;;22.90;;
47844;SDS011;33605;48.822;8.796;2022-12-11T15:54:38;36.60;;;21.43;;
47844;SDS011;33605;48.822;8.796;2022-12-11T15:57:05;33.53;;;20.23;;
47844;SDS011;33605;48.822;8.796;2022-12-11T15:59:35;34.47;;;20.87;;
47844;SDS011;33605;48.822;8.796;2022-12-11T16:02:01;38.13;;;21.40;;
47844;SDS011;33605;48.822;8.796;2022-12-11T16:04:26;33.70;;;20.03;;
47844;SDS011;33605;48.822;8.796;2022-12-11T16:06:52;45.83;;;23.53;;
47844;SDS011;33605;48.822;8.796;2022-12-11T16:09:18;37.03;;;21.07;;
47844;SDS011;33605;48.822;8.796;2022-12-11T16:11:44;32.30;;;19.83;;
47844;SDS011;33605;48.822;8.796;2022-12-11T16:14:09;34.10;;;20.83;;
47844;SDS011;33605;48.822;8.796;2022-12-11T16:16:35;40.30;;;22.90;;
47844;SDS011;33605;48.822;8.796;2022-12-11T16:19:00;43.30;;;25.00;;
47844;SDS011;33605;48.822;8.796;2022-12-11T16:21:26;45.93;;;25.67;;
47844;SDS011;33605;48.822;8.796;2022-12-11T16:23:52;37.40;;;20.83;;
47844;SDS011;33605;48.822;8.796;2022-12-11T16:26:17;35.17;;;20.33;;
47844;SDS011;33605;48.822;8.796;2022-12-11T16:28:43;32.70;;;19.70;;
47844;SDS011;33605;48.822;8.796;2022-12-11T16:31:09;32.83;;;20.97;;
47844;SDS011;33605;48.822;8.796;2022-12-11T16:33:36;31.97;;;19.77;;
47844;SDS011;33605;48.822;8.796;2022-12-11T16:36:10;43.97;;;24.43;;
47844;SDS011;33605;48.822;8.796;2022-12-11T16:38:45;38.33;;;23.23;;
47844;SDS011;33605;48.822;8.796;2022-12-11T16:41:12;37.57;;;22.97;;
47844;SDS011;33605;48.822;8.796;2022-12-11T16:43:38;39.63;;;22.43;;
47844;SDS011;33605;48.822;8.796;2022-12-11T16:46:03;33.97;;;20.83;;
47844;SDS011;33605;48.822;8.796;2022-12-11T16:48:29;35.00;;;21.40;;
47844;SDS011;33605;48.822;8.796;2022-12-11T16:50:55;36.80;;;21.50;;
47844;SDS011;33605;48.822;8.796;2022-12-11T16:53:21;36.63;;;22.30;;
47844;SDS011;33605;48.822;8.796;2022-12-11T16:55:47;31.43;;;18.70;;
47844;SDS011;33605;48.822;8.796;2022-12-11T16:58:13;29.33;;;19.40;;
47844;SDS011;33605;48.822;8.796;2022-12-11T17:00:44;31.43;;;18.67;;
47844;SDS011;33605;48.822;8.796;2022-12-11T17:03:10;26.23;;;17.40;;
47844;SDS011;33605;48.822;8.796;2022-12-11T17:05:37;32.00;;;18.90;;
47844;SDS011;33605;48.822;8.796;2022-12-11T17:08:03;30.87;;;19.30;;
47844;SDS011;33605;48.822;8.796;2022-12-11T17:10:29;33.87;;;20.27;;
47844;SDS011;33605;48.822;8.796;2022-12-11T17:12:55;31.23;;;19.70;;
47844;SDS011;33605;48.822;8.796;2022-12-11T17:15:20;40.40;;;22.23;;
47844;SDS011;33605;48.822;8.796;2022-12-11T17:17:46;36.57;;;24.70;;
47844;SDS011;33605;48.822;8.796;2022-12-11T17:20:11;39.90;;;23.50;;
47844;SDS011;33605;48.822;8.796;2022-12-11T17:22:37;32.63;;;21.30;;
47844;SDS011;33605;48.822;8.796;2022-12-11T17:25:03;46.70;;;26.43;;
47844;SDS011;33605;48.822;8.796;2022-12-11T17:27:29;100.63;;;51.80;;
47844;SDS011;33605;48.822;8.796;2022-12-11T17:29:54;116.87;;;60.73;;
47844;SDS011;33605;48.822;8.796;2022-12-11T17:32:20;80.33;;;39.87;;
47844;SDS011;33605;48.822;8.796;2022-12-11T17:34:46;55.60;;;32.40;;
47844;SDS011;33605;48.822;8.796;2022-12-11T17:37:14;64.40;;;33.37;;
47844;SDS011;33605;48.822;8.796;2022-12-11T17:39:40;85.00;;;45.13;;
47844;SDS011;33605;48.822;8.796;2022-12-11T17:42:06;94.77;;;51.93;;
47844;SDS011;33605;48.822;8.796;2022-12-11T17:44:32;143.57;;;64.43;;
47844;SDS011;33605;48.822;8.796;2022-12-11T17:46:57;249.43;;;91.40;;
47844;SDS011;33605;48.822;8.796;2022-12-11T17:49:23;200.13;;;80.03;;
47844;SDS011;33605;48.822;8.796;2022-12-11T17:51:49;139.90;;;65.33;;
47844;SDS011;33605;48.822;8.796;2022-12-11T17:54:17;100.47;;;48.27;;
47844;SDS011;33605;48.822;8.796;2022-12-11T17:56:43;77.10;;;38.20;;
47844;SDS011;33605;48.822;8.796;2022-12-11T17:59:09;67.20;;;35.63;;
47844;SDS011;33605;48.822;8.796;2022-12-11T18:01:35;47.80;;;27.03;;
47844;SDS011;33605;48.822;8.796;2022-12-11T18:04:00;49.60;;;29.10;;
47844;SDS011;33605;48.822;8.796;2022-12-11T18:06:26;52.03;;;26.73;;
47844;SDS011;33605;48.822;8.796;2022-12-11T18:08:52;56.20;;;31.80;;
47844;SDS011;33605;48.822;8.796;2022-12-11T18:11:18;46.20;;;28.27;;
47844;SDS011;33605;48.822;8.796;2022-12-11T18:13:48;43.47;;;24.40;;
47844;SDS011;33605;48.822;8.796;2022-12-11T18:16:18;42.83;;;22.30;;
47844;SDS011;33605;48.822;8.796;2022-12-11T18:18:49;39.17;;;23.43;;
47844;SDS011;33605;48.822;8.796;2022-12-11T18:21:17;36.10;;;21.63;;
47844;SDS011;33605;48.822;8.796;2022-12-11T18:23:45;35.10;;;21.73;;
47844;SDS011;33605;48.822;8.796;2022-12-11T18:26:11;34.77;;;21.63;;
47844;SDS011;33605;48.822;8.796;2022-12-11T18:28:38;38.20;;;25.13;;
47844;SDS011;33605;48.822;8.796;2022-12-11T18:31:05;36.80;;;24.17;;
47844;SDS011;33605;48.822;8.796;2022-12-11T18:33:33;36.10;;;23.10;;
47844;SDS011;33605;48.822;8.796;2022-12-11T18:36:00;29.57;;;18.77;;
47844;SDS011;33605;48.822;8.796;2022-12-11T18:38:26;32.93;;;18.50;;
47844;SDS011;33605;48.822;8.796;2022-12-11T18:40:52;36.00;;;19.47;;
47844;SDS011;33605;48.822;8.796;2022-12-11T18:43:17;37.40;;;22.10;;
47844;SDS011;33605;48.822;8.796;2022-12-11T18:45:43;30.50;;;18.40;;
47844;SDS011;33605;48.822;8.796;2022-12-11T18:48:09;41.47;;;22.63;;
47844;SDS011;33605;48.822;8.796;2022-12-11T18:50:35;39.63;;;23.60;;
47844;SDS011;33605;48.822;8.796;2022-12-11T18:53:01;37.10;;;23.83;;
47844;SDS011;33605;48.822;8.796;2022-12-11T18:55:27;35.97;;;22.53;;
47844;SDS011;33605;48.822;8.796;2022-12-11T18:57:53;32.53;;;22.07;;
47844;SDS011;33605;48.822;8.796;2022-12-11T19:00:19;35.30;;;20.50;;
47844;SDS011;33605;48.822;8.796;2022-12-11T19:02:47;35.50;;;20.03;;
47844;SDS011;33605;48.822;8.796;2022-12-11T19:05:16;37.23;;;20.67;;
47844;SDS011;33605;48.822;8.796;2022-12-11T19:07:41;32.20;;;18.23;;
47844;SDS011;33605;48.822;8.796;2022-12-11T19:10:07;33.70;;;20.63;;
47844;SDS011;33605;48.822;8.796;2022-12-11T19:12:33;34.50;;;20.57;;
47844;SDS011;33605;48.822;8.796;2022-12-11T19:15:00;35.67;;;21.80;;
47844;SDS011;33605;48.822;8.796;2022-12-11T19:17:26;34.37;;;19.93;;
47844;SDS011;33605;48.822;8.796;2022-12-11T19:19:51;35.60;;;19.17;;
47844;SDS011;33605;48.822;8.796;2022-12-11T19:22:17;34.73;;;21.17;;
47844;SDS011;33605;48.822;8.796;2022-12-11T19:24:43;36.10;;;20.43;;
47844;SDS011;33605;48.822;8.796;2022-12-11T19:27:08;33.83;;;19.27;;
47844;SDS011;33605;48.822;8.796;2022-12-11T19:29:34;31.53;;;18.30;;
47844;SDS011;33605;48.822;8.796;2022-12-11T19:32:02;36.10;;;19.83;;
47844;SDS011;33605;48.822;8.796;2022-12-11T19:34:28;33.77;;;19.30;;
47844;SDS011;33605;48.822;8.796;2022-12-11T19:36:54;32.30;;;20.17;;
47844;SDS011;33605;48.822;8.796;2022-12-11T19:39:20;37.20;;;20.50;;
47844;SDS011;33605;48.822;8.796;2022-12-11T19:41:46;37.13;;;20.90;;
47844;SDS011;33605;48.822;8.796;2022-12-11T19:44:12;34.93;;;20.17;;
47844;SDS011;33605;48.822;8.796;2022-12-11T19:46:38;37.57;;;21.20;;
47844;SDS011;33605;48.822;8.796;2022-12-11T19:49:03;37.00;;;20.23;;
47844;SDS011;33605;48.822;8.796;2022-12-11T19:51:31;35.30;;;20.50;;
47844;SDS011;33605;48.822;8.796;2022-12-11T19:53:58;38.63;;;25.03;;
47844;SDS011;33605;48.822;8.796;2022-12-11T19:56:27;38.60;;;22.67;;
47844;SDS011;33605;48.822;8.796;2022-12-11T19:58:53;35.53;;;21.30;;
47844;SDS011;33605;48.822;8.796;2022-12-11T20:01:26;37.10;;;20.67;;
47844;SDS011;33605;48.822;8.796;2022-12-11T20:03:56;35.90;;;23.50;;
47844;SDS011;33605;48.822;8.796;2022-12-11T20:06:23;37.47;;;22.23;;
47844;SDS011;33605;48.822;8.796;2022-12-11T20:08:50;37.50;;;22.90;;
47844;SDS011;33605;48.822;8.796;2022-12-11T20:11:16;38.97;;;21.80;;
47844;SDS011;33605;48.822;8.796;2022-12-11T20:13:42;41.20;;;23.37;;
47844;SDS011;33605;48.822;8.796;2022-12-11T20:16:10;39.07;;;24.07;;
47844;SDS011;33605;48.822;8.796;2022-12-11T20:18:37;40.60;;;23.50;;
47844;SDS011;33605;48.822;8.796;2022-12-11T20:21:04;44.30;;;27.90;;
47844;SDS011;33605;48.822;8.796;2022-12-11T20:23:32;41.23;;;25.73;;
47844;SDS011;33605;48.822;8.796;2022-12-11T20:26:04;39.80;;;22.67;;
47844;SDS011;33605;48.822;8.796;2022-12-11T20:28:30;52.33;;;28.90;;
47844;SDS011;33605;48.822;8.796;2022-12-11T20:31:01;51.53;;;28.90;;
47844;SDS011;33605;48.822;8.796;2022-12-11T20:33:28;48.07;;;28.50;;
47844;SDS011;33605;48.822;8.796;2022-12-11T20:35:54;54.27;;;33.77;;
47844;SDS011;33605;48.822;8.796;2022-12-11T20:38:19;38.23;;;22.13;;
47844;SDS011;33605;48.822;8.796;2022-12-11T20:40:46;70.80;;;41.47;;
47844;SDS011;33605;48.822;8.796;2022-12-11T20:43:11;51.80;;;30.53;;
47844;SDS011;33605;48.822;8.796;2022-12-11T20:45:37;59.47;;;30.80;;
47844;SDS011;33605;48.822;8.796;2022-12-11T20:48:02;149.73;;;93.07;;
47844;SDS011;33605;48.822;8.796;2022-12-11T20:50:28;90.23;;;52.43;;
47844;SDS011;33605;48.822;8.796;2022-12-11T20:52:54;60.03;;;34.73;;
47844;SDS011;33605;48.822;8.796;2022-12-11T20:55:19;44.40;;;24.53;;
47844;SDS011;33605;48.822;8.796;2022-12-11T20:57:45;43.10;;;23.10;;
47844;SDS011;33605;48.822;8.796;2022-12-11T21:00:11;40.37;;;22.17;;
47844;SDS011;33605;48.822;8.796;2022-12-11T21:02:37;42.17;;;23.03;;
47844;SDS011;33605;48.822;8.796;2022-12-11T21:05:03;42.37;;;24.17;;
47844;SDS011;33605;48.822;8.796;2022-12-11T21:07:29;42.20;;;21.70;;
47844;SDS011;33605;48.822;8.796;2022-12-11T21:09:54;39.47;;;20.80;;
47844;SDS011;33605;48.822;8.796;2022-12-11T21:12:20;38.97;;;20.03;;
47844;SDS011;33605;48.822;8.796;2022-12-11T21:14:45;41.03;;;24.47;;
47844;SDS011;33605;48.822;8.796;2022-12-11T21:17:11;42.30;;;21.43;;
47844;SDS011;33605;48.822;8.796;2022-12-11T21:19:37;38.03;;;20.70;;
47844;SDS011;33605;48.822;8.796;2022-12-11T21:22:02;38.13;;;21.17;;
47844;SDS011;33605;48.822;8.796;2022-12-11T21:24:28;37.63;;;20.27;;
47844;SDS011;33605;48.822;8.796;2022-12-11T21:26:57;37.70;;;20.90;;
47844;SDS011;33605;48.822;8.796;2022-12-11T21:29:23;36.97;;;20.90;;
47844;SDS011;33605;48.822;8.796;2022-12-11T21:31:51;39.87;;;20.67;;
47844;SDS011;33605;48.822;8.796;2022-12-11T21:34:17;36.53;;;21.33;;
47844;SDS011;33605;48.822;8.796;2022-12-11T21:36:44;37.73;;;19.53;;
47844;SDS011;33605;48.822;8.796;2022-12-11T21:39:10;37.27;;;21.60;;
47844;SDS011;33605;48.822;8.796;2022-12-11T21:41:37;34.70;;;20.87;;
47844;SDS011;33605;48.822;8.796;2022-12-11T21:44:03;38.00;;;20.67;;
47844;SDS011;33605;48.822;8.796;2022-12-11T21:46:29;41.77;;;22.23;;
47844;SDS011;33605;48.822;8.796;2022-12-11T21:48:55;33.60;;;20.00;;
47844;SDS011;33605;48.822;8.796;2022-12-11T21:51:23;39.47;;;21.80;;
47844;SDS011;33605;48.822;8.796;2022-12-11T21:53:50;38.73;;;20.43;;
47844;SDS011;33605;48.822;8.796;2022-12-11T21:56:17;46.03;;;20.93;;
47844;SDS011;33605;48.822;8.796;2022-12-11T21:58:46;34.50;;;20.47;;
47844;SDS011;33605;48.822;8.796;2022-12-11T22:01:18;32.10;;;19.10;;
47844;SDS011;33605;48.822;8.796;2022-12-11T22:04:14;33.97;;;19.43;;
47844;SDS011;33605;48.822;8.796;2022-12-11T22:06:40;40.40;;;18.70;;
47844;SDS011;33605;48.822;8.796;2022-12-11T22:09:07;35.80;;;20.47;;
47844;SDS011;33605;48.822;8.796;2022-12-11T22:11:34;40.00;;;21.77;;
47844;SDS011;33605;48.822;8.796;2022-12-11T22:14:00;45.10;;;23.80;;
47844;SDS011;33605;48.822;8.796;2022-12-11T22:16:26;36.10;;;20.27;;
47844;SDS011;33605;48.822;8.796;2022-12-11T22:18:52;38.27;;;21.50;;
47844;SDS011;33605;48.822;8.796;2022-12-11T22:21:18;43.40;;;20.90;;
47844;SDS011;33605;48.822;8.796;2022-12-11T22:23:43;38.00;;;21.03;;
47844;SDS011;33605;48.822;8.796;2022-12-11T22:26:20;37.13;;;19.63;;
47844;SDS011;33605;48.822;8.796;2022-12-11T22:28:48;40.03;;;20.73;;
47844;SDS011;33605;48.822;8.796;2022-12-11T22:31:14;42.53;;;22.00;;
47844;SDS011;33605;48.822;8.796;2022-12-11T22:33:43;33.23;;;19.13;;
47844;SDS011;33605;48.822;8.796;2022-12-11T22:36:09;42.57;;;20.97;;
47844;SDS011;33605;48.822;8.796;2022-12-11T22:38:35;39.37;;;21.90;;
47844;SDS011;33605;48.822;8.796;2022-12-11T22:41:08;37.00;;;20.70;;
47844;SDS011;33605;48.822;8.796;2022-12-11T22:43:35;39.33;;;20.20;;
47844;SDS011;33605;48.822;8.796;2022-12-11T22:46:00;40.73;;;20.23;;
47844;SDS011;33605;48.822;8.796;2022-12-11T22:48:26;40.50;;;22.10;;
47844;SDS011;33605;48.822;8.796;2022-12-11T22:50:51;36.53;;;19.37;;
47844;SDS011;33605;48.822;8.796;2022-12-11T22:53:18;40.67;;;20.67;;
47844;SDS011;33605;48.822;8.796;2022-12-11T22:55:43;37.93;;;20.87;;
47844;SDS011;33605;48.822;8.796;2022-12-11T22:58:09;48.33;;;24.07;;
47844;SDS011;33605;48.822;8.796;2022-12-11T23:00:35;43.27;;;22.23;;
47844;SDS011;33605;48.822;8.796;2022-12-11T23:03:00;40.50;;;20.67;;
47844;SDS011;33605;48.822;8.796;2022-12-11T23:05:26;35.30;;;19.33;;
47844;SDS011;33605;48.822;8.796;2022-12-11T23:07:52;39.00;;;20.53;;
47844;SDS011;33605;48.822;8.796;2022-12-11T23:10:18;35.67;;;21.27;;
47844;SDS011;33605;48.822;8.796;2022-12-11T23:12:44;40.43;;;20.37;;
47844;SDS011;33605;48.822;8.796;2022-12-11T23:15:10;39.97;;;20.70;;
47844;SDS011;33605;48.822;8.796;2022-12-11T23:17:35;40.63;;;21.47;;
47844;SDS011;33605;48.822;8.796;2022-12-11T23:20:01;36.50;;;20.50;;
47844;SDS011;33605;48.822;8.796;2022-12-11T23:22:29;36.83;;;19.17;;
47844;SDS011;33605;48.822;8.796;2022-12-11T23:24:55;39.23;;;21.83;;
47844;SDS011;33605;48.822;8.796;2022-12-11T23:27:21;35.93;;;20.47;;
47844;SDS011;33605;48.822;8.796;2022-12-11T23:29:47;33.93;;;18.60;;
47844;SDS011;33605;48.822;8.796;2022-12-11T23:32:12;38.63;;;21.67;;
47844;SDS011;33605;48.822;8.796;2022-12-11T23:34:38;38.40;;;19.47;;
47844;SDS011;33605;48.822;8.796;2022-12-11T23:37:04;32.43;;;18.90;;
47844;SDS011;33605;48.822;8.796;2022-12-11T23:39:29;37.80;;;20.20;;
47844;SDS011;33605;48.822;8.796;2022-12-11T23:41:55;37.80;;;20.10;;
47844;SDS011;33605;48.822;8.796;2022-12-11T23:44:21;35.87;;;20.27;;
47844;SDS011;33605;48.822;8.796;2022-12-11T23:46:46;38.90;;;20.70;;
47844;SDS011;33605;48.822;8.796;2022-12-11T23:49:12;35.53;;;17.93;;
47844;SDS011;33605;48.822;8.796;2022-12-11T23:51:38;38.50;;;19.20;;
47844;SDS011;33605;48.822;8.796;2022-12-11T23:54:03;42.33;;;21.00;;
47844;SDS011;33605;48.822;8.796;2022-12-11T23:56:29;38.70;;;20.33;;
47844;SDS011;33605;48.822;8.796;2022-12-11T23:58:55;42.50;;;21.67;;
